Hovedside
METAR-TAF:

METAR-TAF

Lufthavner :

Kajana lufthavn

Kajana, Finland

breddegrad: 64-17N, lengdegrad: 027-41E, høyde over havet: 143 m

Gjeldene værobservasjon

Denne rapporten ble laget for 23 minutter siden, klokken 09:50 UTC
Vind 8 kt fra Sørøst, skiftende mellom Øst og Sør
Temperatur 28°C
Luftfuktighet 37%
Trykk 1014 hPa
Sikt 10 km eller mer
ingen skyer under 1500 m og ingen bygeskyer

METAR: EFKI 200950Z AUTO 13008KT 080V180 CAVOK 28/12 Q1014

Tid: 13:13 (10:13 UTC)

Varsel

Denne rapporten ble laget for 1 time og 42 minutter siden, klokken 08:31 UTC
Varsel gyldig fra 20. klokken 09 UTC til 20. klokken 12 UTC
Vind 8 kt fra Øst
Sikt 10 km eller mer
ingen skyer under 1500 m og ingen bygeskyer

TAF: EFKI 200831Z 2009/2012 10008KT CAVOK

Værobservasjoner og værvarsel for over 4000 flyplasser (METAR- og TAF-rapporter).

Tilgjengelige stasjoner er representert av de røde og gule prikkene på kartet.

Hold musepekeren over prikken for å se navnet på stasjonen.

Klikk så for å se værobservasjoner og -varsler.

For å forandre kartet kan du klikke på den grønne knappen med svart kryss for å zoome inn, på den grønne knappen med strek for å zoome ut, eller på de grønne pilene for å se tilstøtende kart.


METAR-TAF: